Angier, NC (27501)

11:29 AM EDT on July 28, 2016 (GMT -0400)
Benton Place | | Change Station
Active Advisory: Excessive Heat Warning

Elev 312 ft 35.51 °N, 78.71 °W | Updated 1 minute ago

Clear
Clear
94.3 °F
Feels Like 106 °F
N
3.2
Wind Variable Wind from WSW

Today
High -- | Low -- °F
--% Chance of Precip.
Yesterday
High -- | Low -- °F
Precip. -- in
Pressure 29.93 in
Visibility 10.0 miles
Clouds Clear
Heat Index 106 °F
Dew Point 75 °F
Humidity 54%
Rainfall 0.00 in
Snow Depth Not available.
6:20 AM 8:21 PM
Waning Crescent, 31% visible
METAR KHRJ 281500Z AUTO 21007KT 10SM CLR 33/23 A2993 RMK AO2 T03310234
Pressure 29.93 in
Visibility 10.0 miles
Clouds Clear
Heat Index 106 °F
Dew Point 75 °F
Humidity 54%
Rainfall 0.00 in
Snow Depth Not available.
6:20 AM 8:21 PM
Waning Crescent, 31% visible
METAR KHRJ 281500Z AUTO 21007KT 10SM CLR 33/23 A2993 RMK AO2 T03310234

10-Day Weather Forecast

Almanac

Astronomy

Jul. 28, 2016 Rise Set
Actual Time
Civil Twilight
Nautical Twilight
Astronomical Twilight
Moon
Length of Visible Light
Length of Day
Tomorrow will be .
, % of the Moon is Illuminated

Today's Extremes

State Highs State Lows

Community

WunderPhotos

Upload Photos

1,928,124 photos uploaded!

WunderBlog® & News

Nearby

Air Quality

  Air Quality AQ Index Pollutant
Not available.

Snow Depth

Station Depth Elevation

Earthquake Activity

City Distance Mag. Time & Date
Minimum magnitude displayed is 2.5.

Coastal Water Temperatures

Place Temperature

Stations

Nearby Weather Stations

Station Location Temp. Windchill Dew Point Humidity Wind Precip. Elev Updated Type
                   

Watches & Warnings

Excessive Heat Warning
Issued: 10:55 AM EDT Jul. 28, 2016 – National Weather Service

... Excessive heat warning in effect until 8 PM EDT this evening...

The National Weather Service in Raleigh has issued an excessive
heat warning... which is in effect until 8 PM EDT this evening.
The heat advisory is no longer in effect.

* Temperatures... highs will reach 98 to 101.

* Heat indices... 110 to 115 degrees.


* Impacts... the accumulative effects of the heat and humidity
will lead to an increased risk of heat related illnesses...
especially among vulnerable individuals such as the sick...
the elderly... those exerting themselves outdoors... and those
without air conditioning.

Precautionary/preparedness actions...

An excessive heat warning means that a prolonged period of
dangerously hot temperatures will occur. The combination of hot
temperatures and high humidity will combine to create a dangerous
situation in which heat illnesses are likely. Drink plenty of
fluids, stay in an air-conditioned room, stay out of the sun, and
check up on relatives and neighbors.